< Cyclone 197615 1976 Season Cyclone 197617 >
Cyclone 197616 (CAROL)
General InformationTrack Information on Google Maps || ResourceGoogle EarthGE AnimationAtom FeedGeoJSON
Detalied Best Track (Time Zone = UTC)
Year Month Day Hour Lat. Long. Pressure (hPa) Wind (kt) Class Image Chart
1976 5 3 00 -7.2 92.0 1006 0 0 -- --
1976 5 3 03 -7.5 92.0 1006 0 0 -- --
1976 5 3 06 -7.7 92.0 1005 0 0 -- --
1976 5 3 09 -8.0 92.0 1004 0 0 -- --
1976 5 3 12 -8.3 92.0 1003 0 0 -- --
1976 5 3 15 -8.6 92.0 1004 0 0 -- --
1976 5 3 18 -8.9 91.9 1005 0 0 -- --
1976 5 3 21 -9.2 91.8 1004 0 0 -- --
1976 5 4 00 -9.4 91.7 1003 0 0 -- --
1976 5 4 03 -9.7 91.6 1003 0 0 -- --
1976 5 4 06 -10.0 91.5 1002 0 0 -- --
1976 5 4 09 -10.2 91.4 1000 0 0 -- --
1976 5 4 12 -10.3 91.1 999 0 0 -- --
1976 5 4 15 -10.5 90.8 999 0 0 -- --
1976 5 4 18 -10.6 90.6 999 0 0 -- --
1976 5 4 21 -10.9 90.4 997 0 0 -- --
1976 5 5 00 -11.1 90.1 995 0 0 -- --
1976 5 5 03 -11.3 89.9 994 0 0 -- --
1976 5 5 06 -11.5 89.8 993 0 0 -- --
1976 5 5 09 -12.0 89.7 991 0 0 -- --
1976 5 5 12 -12.4 89.7 994 0 0 -- --
1976 5 5 15 -12.7 89.7 994 0 0 -- --
1976 5 5 18 -13.1 89.7 992 0 0 -- --
1976 5 5 21 -13.4 89.7 992 0 0 -- --
1976 5 6 00 -13.7 89.8 994 0 0 -- --
1976 5 6 03 -14.0 89.8 994 0 0 -- --
1976 5 6 06 -14.3 89.8 994 0 0 -- --
1976 5 6 09 -14.5 89.9 995 0 0 -- --
1976 5 6 12 -14.7 89.9 998 0 0 -- --
1976 5 6 15 -15.0 89.9 1001 0 0 -- --
1976 5 6 18 -15.3 90.0 1001 0 0 -- --
1976 5 6 21 -15.5 90.0 1001 0 0 -- --
1976 5 7 00 -15.6 90.0 1003 0 0 -- --
1976 5 7 03 -15.9 90.0 1003 0 0 -- --
1976 5 7 06 -16.2 90.0 1001 0 0 -- --
1976 5 7 12 -16.5 90.0 1004 0 0 -- --
1976 5 7 15 -16.7 90.0 1005 0 0 -- --
1976 5 7 18 -16.9 90.0 1005 0 0 -- --
1976 5 7 21 -17.1 90.0 1004 0 0 -- --
1976 5 8 00 -17.3 90.0 1005 0 0 -- --
1976 5 8 03 -17.6 90.0 1004 0 0 -- --
1976 5 8 06 -18.1 89.9 1003 0 0 -- --
1976 5 8 09 -18.4 89.6 1002 0 0 -- --
1976 5 8 12 -18.5 89.2 1003 0 0 -- --
1976 5 8 15 -18.3 88.7 1004 0 0 -- --
1976 5 8 18 -18.3 88.7 1004 0 0 -- --
1976 5 8 21 -17.9 88.0 1005 0 0 -- --
1976 5 9 00 -17.9 87.5 1006 0 0 -- --
< Cyclone 197615 1976 Season Cyclone 197617 >

Help